sensor_id;sensor_type;location;lat;lon;timestamp;temperature;humidity
5174;DHT22;2606;50.934;6.934;2022-08-01T00:01:15;22.40;99.90
5174;DHT22;2606;50.934;6.934;2022-08-01T00:03:41;22.40;99.90
5174;DHT22;2606;50.934;6.934;2022-08-01T00:06:07;22.40;99.90
5174;DHT22;2606;50.934;6.934;2022-08-01T00:08:32;22.40;99.90
5174;DHT22;2606;50.934;6.934;2022-08-01T00:10:58;22.40;99.90
5174;DHT22;2606;50.934;6.934;2022-08-01T00:13:23;22.40;99.90
5174;DHT22;2606;50.934;6.934;2022-08-01T00:15:49;22.40;99.90
5174;DHT22;2606;50.934;6.934;2022-08-01T00:18:14;22.40;99.90
5174;DHT22;2606;50.934;6.934;2022-08-01T00:20:40;22.40;99.90
5174;DHT22;2606;50.934;6.934;2022-08-01T00:23:05;22.40;99.90
5174;DHT22;2606;50.934;6.934;2022-08-01T00:25:31;22.40;99.90
5174;DHT22;2606;50.934;6.934;2022-08-01T00:27:57;22.40;99.90
5174;DHT22;2606;50.934;6.934;2022-08-01T00:30:22;22.40;99.90
5174;DHT22;2606;50.934;6.934;2022-08-01T00:32:48;22.40;99.90
5174;DHT22;2606;50.934;6.934;2022-08-01T00:35:13;22.40;99.90
5174;DHT22;2606;50.934;6.934;2022-08-01T00:37:39;22.40;99.90
5174;DHT22;2606;50.934;6.934;2022-08-01T00:40:06;22.30;99.90
5174;DHT22;2606;50.934;6.934;2022-08-01T00:42:32;22.30;99.90
5174;DHT22;2606;50.934;6.934;2022-08-01T00:44:57;22.30;99.90
5174;DHT22;2606;50.934;6.934;2022-08-01T00:47:23;22.30;99.90
5174;DHT22;2606;50.934;6.934;2022-08-01T00:49:48;22.30;99.90
5174;DHT22;2606;50.934;6.934;2022-08-01T00:52:14;22.30;99.90
5174;DHT22;2606;50.934;6.934;2022-08-01T00:54:40;22.20;99.90
5174;DHT22;2606;50.934;6.934;2022-08-01T00:57:05;22.20;99.90
5174;DHT22;2606;50.934;6.934;2022-08-01T00:59:32;22.20;99.90
5174;DHT22;2606;50.934;6.934;2022-08-01T01:01:58;22.20;99.90
5174;DHT22;2606;50.934;6.934;2022-08-01T01:04:24;22.20;99.90
5174;DHT22;2606;50.934;6.934;2022-08-01T01:07:22;22.10;99.90
5174;DHT22;2606;50.934;6.934;2022-08-01T01:10:03;22.10;99.90
5174;DHT22;2606;50.934;6.934;2022-08-01T01:15:43;22.00;99.90
5174;DHT22;2606;50.934;6.934;2022-08-01T01:18:38;21.90;99.90
5174;DHT22;2606;50.934;6.934;2022-08-01T01:31:44;21.70;99.90
5174;DHT22;2606;50.934;6.934;2022-08-01T01:34:13;21.70;99.90
5174;DHT22;2606;50.934;6.934;2022-08-01T01:36:40;21.70;99.90
5174;DHT22;2606;50.934;6.934;2022-08-01T01:39:06;21.60;99.90
5174;DHT22;2606;50.934;6.934;2022-08-01T01:41:32;21.60;99.90
5174;DHT22;2606;50.934;6.934;2022-08-01T01:44:01;21.60;99.90
5174;DHT22;2606;50.934;6.934;2022-08-01T01:46:28;21.60;99.90
5174;DHT22;2606;50.934;6.934;2022-08-01T01:48:55;21.50;99.90
5174;DHT22;2606;50.934;6.934;2022-08-01T01:51:24;21.50;99.90
5174;DHT22;2606;50.934;6.934;2022-08-01T01:53:53;21.50;99.90
5174;DHT22;2606;50.934;6.934;2022-08-01T01:56:20;21.50;99.90
5174;DHT22;2606;50.934;6.934;2022-08-01T01:58:50;21.50;99.90
5174;DHT22;2606;50.934;6.934;2022-08-01T02:01:17;21.50;99.90
5174;DHT22;2606;50.934;6.934;2022-08-01T02:03:43;21.50;99.90
5174;DHT22;2606;50.934;6.934;2022-08-01T02:06:12;21.50;99.90
5174;DHT22;2606;50.934;6.934;2022-08-01T02:08:40;21.50;99.90
5174;DHT22;2606;50.934;6.934;2022-08-01T02:11:07;21.50;99.90
5174;DHT22;2606;50.934;6.934;2022-08-01T02:13:51;21.50;99.90
5174;DHT22;2606;50.934;6.934;2022-08-01T02:16:19;21.50;99.90
5174;DHT22;2606;50.934;6.934;2022-08-01T02:18:45;21.40;99.90
5174;DHT22;2606;50.934;6.934;2022-08-01T02:21:14;21.50;99.90
5174;DHT22;2606;50.934;6.934;2022-08-01T02:23:42;21.40;99.90
5174;DHT22;2606;50.934;6.934;2022-08-01T02:26:14;21.40;99.90
5174;DHT22;2606;50.934;6.934;2022-08-01T02:29:10;21.40;99.90
5174;DHT22;2606;50.934;6.934;2022-08-01T02:31:39;21.40;99.90
5174;DHT22;2606;50.934;6.934;2022-08-01T02:34:09;21.40;99.90
5174;DHT22;2606;50.934;6.934;2022-08-01T02:36:36;21.40;99.90
5174;DHT22;2606;50.934;6.934;2022-08-01T02:39:08;21.40;99.90
5174;DHT22;2606;50.934;6.934;2022-08-01T02:41:38;21.40;99.90
5174;DHT22;2606;50.934;6.934;2022-08-01T02:44:06;21.40;99.90
5174;DHT22;2606;50.934;6.934;2022-08-01T02:46:46;21.30;99.90
5174;DHT22;2606;50.934;6.934;2022-08-01T02:49:14;21.30;99.90
5174;DHT22;2606;50.934;6.934;2022-08-01T02:51:43;21.30;99.90
5174;DHT22;2606;50.934;6.934;2022-08-01T02:54:10;21.30;99.90
5174;DHT22;2606;50.934;6.934;2022-08-01T02:56:37;21.30;99.90
5174;DHT22;2606;50.934;6.934;2022-08-01T02:59:07;21.30;99.90
5174;DHT22;2606;50.934;6.934;2022-08-01T03:01:35;21.30;99.90
5174;DHT22;2606;50.934;6.934;2022-08-01T03:04:03;21.30;99.90
5174;DHT22;2606;50.934;6.934;2022-08-01T03:06:31;21.20;99.90
5174;DHT22;2606;50.934;6.934;2022-08-01T03:08:58;21.20;99.90
5174;DHT22;2606;50.934;6.934;2022-08-01T03:11:26;21.20;99.90
5174;DHT22;2606;50.934;6.934;2022-08-01T03:13:54;21.20;99.90
5174;DHT22;2606;50.934;6.934;2022-08-01T03:16:22;21.20;99.90
5174;DHT22;2606;50.934;6.934;2022-08-01T03:18:50;21.20;99.90
5174;DHT22;2606;50.934;6.934;2022-08-01T03:21:19;21.20;99.90
5174;DHT22;2606;50.934;6.934;2022-08-01T03:23:46;21.20;99.90
5174;DHT22;2606;50.934;6.934;2022-08-01T03:26:13;21.20;99.90
5174;DHT22;2606;50.934;6.934;2022-08-01T03:28:40;21.20;99.90
5174;DHT22;2606;50.934;6.934;2022-08-01T03:31:07;21.20;99.90
5174;DHT22;2606;50.934;6.934;2022-08-01T03:33:32;21.10;99.90
5174;DHT22;2606;50.934;6.934;2022-08-01T03:36:00;21.10;99.90
5174;DHT22;2606;50.934;6.934;2022-08-01T03:38:28;21.10;99.90
5174;DHT22;2606;50.934;6.934;2022-08-01T03:40:59;21.10;99.90
5174;DHT22;2606;50.934;6.934;2022-08-01T03:43:34;21.10;99.90
5174;DHT22;2606;50.934;6.934;2022-08-01T03:46:08;21.10;99.90
5174;DHT22;2606;50.934;6.934;2022-08-01T03:48:39;21.20;99.90
5174;DHT22;2606;50.934;6.934;2022-08-01T03:51:06;21.20;99.90
5174;DHT22;2606;50.934;6.934;2022-08-01T03:53:33;21.30;99.90
5174;DHT22;2606;50.934;6.934;2022-08-01T03:56:01;21.30;99.90
5174;DHT22;2606;50.934;6.934;2022-08-01T03:58:28;21.40;99.90
5174;DHT22;2606;50.934;6.934;2022-08-01T04:00:55;21.40;99.90
5174;DHT22;2606;50.934;6.934;2022-08-01T04:03:20;21.40;99.90
5174;DHT22;2606;50.934;6.934;2022-08-01T04:05:46;21.40;99.90
5174;DHT22;2606;50.934;6.934;2022-08-01T04:08:12;21.50;99.90
5174;DHT22;2606;50.934;6.934;2022-08-01T04:10:37;21.60;99.90
5174;DHT22;2606;50.934;6.934;2022-08-01T04:13:03;21.70;99.90
5174;DHT22;2606;50.934;6.934;2022-08-01T04:15:29;21.70;99.90
5174;DHT22;2606;50.934;6.934;2022-08-01T04:17:54;21.70;99.90
5174;DHT22;2606;50.934;6.934;2022-08-01T04:20:20;21.70;99.90
5174;DHT22;2606;50.934;6.934;2022-08-01T04:22:46;21.70;99.90
5174;DHT22;2606;50.934;6.934;2022-08-01T04:25:19;21.70;99.90
5174;DHT22;2606;50.934;6.934;2022-08-01T04:27:49;21.70;99.90
5174;DHT22;2606;50.934;6.934;2022-08-01T04:30:27;21.60;99.90
5174;DHT22;2606;50.934;6.934;2022-08-01T04:32:54;21.70;99.90
5174;DHT22;2606;50.934;6.934;2022-08-01T04:35:20;21.70;99.90
5174;DHT22;2606;50.934;6.934;2022-08-01T04:37:47;21.70;99.90
5174;DHT22;2606;50.934;6.934;2022-08-01T04:40:14;21.70;99.90
5174;DHT22;2606;50.934;6.934;2022-08-01T04:42:41;21.70;99.90
5174;DHT22;2606;50.934;6.934;2022-08-01T04:45:08;21.70;99.90
5174;DHT22;2606;50.934;6.934;2022-08-01T04:47:36;21.60;99.90
5174;DHT22;2606;50.934;6.934;2022-08-01T04:50:08;21.70;99.90
5174;DHT22;2606;50.934;6.934;2022-08-01T04:52:36;21.70;99.90
5174;DHT22;2606;50.934;6.934;2022-08-01T04:55:03;21.70;99.90
5174;DHT22;2606;50.934;6.934;2022-08-01T04:57:29;21.70;99.90
5174;DHT22;2606;50.934;6.934;2022-08-01T04:59:56;21.70;99.90
5174;DHT22;2606;50.934;6.934;2022-08-01T05:02:24;21.70;99.90
5174;DHT22;2606;50.934;6.934;2022-08-01T05:04:53;21.70;99.90
5174;DHT22;2606;50.934;6.934;2022-08-01T05:07:20;21.80;99.90
5174;DHT22;2606;50.934;6.934;2022-08-01T05:09:46;21.80;99.90
5174;DHT22;2606;50.934;6.934;2022-08-01T05:12:12;21.80;99.90
5174;DHT22;2606;50.934;6.934;2022-08-01T05:14:38;21.80;99.90
5174;DHT22;2606;50.934;6.934;2022-08-01T05:17:06;21.80;99.90
5174;DHT22;2606;50.934;6.934;2022-08-01T05:19:36;21.80;99.90
5174;DHT22;2606;50.934;6.934;2022-08-01T05:22:05;21.80;99.90
5174;DHT22;2606;50.934;6.934;2022-08-01T05:24:32;21.80;99.90
5174;DHT22;2606;50.934;6.934;2022-08-01T05:26:58;21.90;99.90
5174;DHT22;2606;50.934;6.934;2022-08-01T05:29:25;21.80;99.90
5174;DHT22;2606;50.934;6.934;2022-08-01T05:31:51;21.90;99.90
5174;DHT22;2606;50.934;6.934;2022-08-01T05:34:18;21.90;99.90
5174;DHT22;2606;50.934;6.934;2022-08-01T05:36:43;21.80;99.90
5174;DHT22;2606;50.934;6.934;2022-08-01T05:39:10;21.80;99.90
5174;DHT22;2606;50.934;6.934;2022-08-01T05:41:37;21.90;99.90
5174;DHT22;2606;50.934;6.934;2022-08-01T05:44:04;21.80;99.90
5174;DHT22;2606;50.934;6.934;2022-08-01T05:46:29;21.80;99.90
5174;DHT22;2606;50.934;6.934;2022-08-01T05:48:56;21.80;99.90
5174;DHT22;2606;50.934;6.934;2022-08-01T05:51:22;21.90;99.90
5174;DHT22;2606;50.934;6.934;2022-08-01T05:53:48;21.90;99.90
5174;DHT22;2606;50.934;6.934;2022-08-01T05:56:13;21.90;99.90
5174;DHT22;2606;50.934;6.934;2022-08-01T05:58:39;21.80;99.90
5174;DHT22;2606;50.934;6.934;2022-08-01T06:01:05;21.80;99.90
5174;DHT22;2606;50.934;6.934;2022-08-01T06:03:31;21.70;99.90
5174;DHT22;2606;50.934;6.934;2022-08-01T06:06:01;21.70;99.90
5174;DHT22;2606;50.934;6.934;2022-08-01T06:08:27;21.60;99.90
5174;DHT22;2606;50.934;6.934;2022-08-01T06:10:52;21.60;99.90
5174;DHT22;2606;50.934;6.934;2022-08-01T06:13:18;21.60;99.90
5174;DHT22;2606;50.934;6.934;2022-08-01T06:15:47;21.60;99.90
5174;DHT22;2606;50.934;6.934;2022-08-01T06:18:13;21.70;99.90
5174;DHT22;2606;50.934;6.934;2022-08-01T06:20:39;21.70;99.90
5174;DHT22;2606;50.934;6.934;2022-08-01T06:23:04;21.70;99.90
5174;DHT22;2606;50.934;6.934;2022-08-01T06:25:30;21.60;99.90
5174;DHT22;2606;50.934;6.934;2022-08-01T06:27:56;21.70;99.90
5174;DHT22;2606;50.934;6.934;2022-08-01T06:30:22;21.80;99.90
5174;DHT22;2606;50.934;6.934;2022-08-01T06:32:47;21.80;99.90
5174;DHT22;2606;50.934;6.934;2022-08-01T06:35:17;21.80;99.90
5174;DHT22;2606;50.934;6.934;2022-08-01T06:37:42;21.70;99.90
5174;DHT22;2606;50.934;6.934;2022-08-01T06:40:11;21.70;99.90
5174;DHT22;2606;50.934;6.934;2022-08-01T06:42:37;21.70;99.90
5174;DHT22;2606;50.934;6.934;2022-08-01T06:45:07;21.80;99.90
5174;DHT22;2606;50.934;6.934;2022-08-01T06:47:33;21.90;99.90
5174;DHT22;2606;50.934;6.934;2022-08-01T06:49:59;21.90;99.90
5174;DHT22;2606;50.934;6.934;2022-08-01T06:52:24;21.80;99.90
5174;DHT22;2606;50.934;6.934;2022-08-01T06:54:50;21.80;99.90
5174;DHT22;2606;50.934;6.934;2022-08-01T06:57:16;21.90;99.90
5174;DHT22;2606;50.934;6.934;2022-08-01T06:59:41;21.90;99.90
5174;DHT22;2606;50.934;6.934;2022-08-01T07:02:07;22.00;99.90
5174;DHT22;2606;50.934;6.934;2022-08-01T07:04:33;22.00;99.90
5174;DHT22;2606;50.934;6.934;2022-08-01T07:06:59;22.00;99.90
5174;DHT22;2606;50.934;6.934;2022-08-01T07:09:25;22.00;99.90
5174;DHT22;2606;50.934;6.934;2022-08-01T07:11:51;22.10;99.90
5174;DHT22;2606;50.934;6.934;2022-08-01T07:14:18;22.10;99.90
5174;DHT22;2606;50.934;6.934;2022-08-01T07:16:44;22.10;99.90
5174;DHT22;2606;50.934;6.934;2022-08-01T07:19:09;22.10;99.90
5174;DHT22;2606;50.934;6.934;2022-08-01T07:21:35;22.10;99.90
5174;DHT22;2606;50.934;6.934;2022-08-01T07:24:01;22.10;99.90
5174;DHT22;2606;50.934;6.934;2022-08-01T07:26:26;22.10;99.90
5174;DHT22;2606;50.934;6.934;2022-08-01T07:28:52;22.10;99.90
5174;DHT22;2606;50.934;6.934;2022-08-01T07:31:18;22.10;99.90
5174;DHT22;2606;50.934;6.934;2022-08-01T07:33:44;22.10;99.90
5174;DHT22;2606;50.934;6.934;2022-08-01T07:36:10;22.20;99.90
5174;DHT22;2606;50.934;6.934;2022-08-01T07:38:36;22.30;99.90
5174;DHT22;2606;50.934;6.934;2022-08-01T07:41:01;22.30;99.90
5174;DHT22;2606;50.934;6.934;2022-08-01T07:43:28;22.30;99.90
5174;DHT22;2606;50.934;6.934;2022-08-01T07:45:53;22.40;99.90
5174;DHT22;2606;50.934;6.934;2022-08-01T07:48:19;22.40;99.90
5174;DHT22;2606;50.934;6.934;2022-08-01T07:50:49;22.40;99.90
5174;DHT22;2606;50.934;6.934;2022-08-01T07:53:15;22.40;99.90
5174;DHT22;2606;50.934;6.934;2022-08-01T07:55:40;22.40;99.90
5174;DHT22;2606;50.934;6.934;2022-08-01T07:58:06;22.50;99.90
5174;DHT22;2606;50.934;6.934;2022-08-01T08:00:31;22.50;99.90
5174;DHT22;2606;50.934;6.934;2022-08-01T08:02:57;22.60;99.90
5174;DHT22;2606;50.934;6.934;2022-08-01T08:05:27;22.70;99.90
5174;DHT22;2606;50.934;6.934;2022-08-01T08:07:53;22.80;99.90
5174;DHT22;2606;50.934;6.934;2022-08-01T08:10:19;22.90;99.90
5174;DHT22;2606;50.934;6.934;2022-08-01T08:12:44;23.00;99.90
5174;DHT22;2606;50.934;6.934;2022-08-01T08:15:13;23.10;99.90
5174;DHT22;2606;50.934;6.934;2022-08-01T08:17:39;23.10;99.90
5174;DHT22;2606;50.934;6.934;2022-08-01T08:20:06;23.20;99.90
5174;DHT22;2606;50.934;6.934;2022-08-01T08:22:32;23.20;99.90
5174;DHT22;2606;50.934;6.934;2022-08-01T08:24:59;23.20;99.90
5174;DHT22;2606;50.934;6.934;2022-08-01T08:27:24;23.20;99.90
5174;DHT22;2606;50.934;6.934;2022-08-01T08:29:50;23.20;99.90
5174;DHT22;2606;50.934;6.934;2022-08-01T08:32:15;23.20;99.90
5174;DHT22;2606;50.934;6.934;2022-08-01T08:34:41;23.30;99.90
5174;DHT22;2606;50.934;6.934;2022-08-01T08:37:07;23.40;99.90
5174;DHT22;2606;50.934;6.934;2022-08-01T08:39:32;23.50;99.90
5174;DHT22;2606;50.934;6.934;2022-08-01T08:42:04;23.60;99.90
5174;DHT22;2606;50.934;6.934;2022-08-01T08:44:31;23.50;99.90
5174;DHT22;2606;50.934;6.934;2022-08-01T08:46:58;23.50;99.90
5174;DHT22;2606;50.934;6.934;2022-08-01T08:49:27;23.50;99.90
5174;DHT22;2606;50.934;6.934;2022-08-01T08:51:53;23.60;99.90
5174;DHT22;2606;50.934;6.934;2022-08-01T08:54:24;23.60;99.90
5174;DHT22;2606;50.934;6.934;2022-08-01T08:56:51;23.70;99.90
5174;DHT22;2606;50.934;6.934;2022-08-01T08:59:18;23.70;99.90
5174;DHT22;2606;50.934;6.934;2022-08-01T09:01:44;23.70;99.90
5174;DHT22;2606;50.934;6.934;2022-08-01T09:04:11;23.80;99.90
5174;DHT22;2606;50.934;6.934;2022-08-01T09:06:37;23.80;99.90
5174;DHT22;2606;50.934;6.934;2022-08-01T09:09:04;23.90;99.90
5174;DHT22;2606;50.934;6.934;2022-08-01T09:11:30;23.90;99.90
5174;DHT22;2606;50.934;6.934;2022-08-01T09:14:14;23.90;99.90
5174;DHT22;2606;50.934;6.934;2022-08-01T09:16:47;23.90;99.90
5174;DHT22;2606;50.934;6.934;2022-08-01T09:19:24;24.00;99.90
5174;DHT22;2606;50.934;6.934;2022-08-01T09:22:02;24.00;99.90
5174;DHT22;2606;50.934;6.934;2022-08-01T09:24:29;24.00;99.90
5174;DHT22;2606;50.934;6.934;2022-08-01T09:26:55;24.00;99.90
5174;DHT22;2606;50.934;6.934;2022-08-01T09:29:23;24.00;99.90
5174;DHT22;2606;50.934;6.934;2022-08-01T09:31:49;24.10;99.90
5174;DHT22;2606;50.934;6.934;2022-08-01T09:34:16;24.20;99.90
5174;DHT22;2606;50.934;6.934;2022-08-01T09:36:52;24.20;99.90
5174;DHT22;2606;50.934;6.934;2022-08-01T09:39:22;24.20;99.90
5174;DHT22;2606;50.934;6.934;2022-08-01T09:41:48;24.20;99.90
5174;DHT22;2606;50.934;6.934;2022-08-01T09:44:14;24.20;99.90
5174;DHT22;2606;50.934;6.934;2022-08-01T09:47:00;24.30;99.90
5174;DHT22;2606;50.934;6.934;2022-08-01T09:49:31;24.30;99.90
5174;DHT22;2606;50.934;6.934;2022-08-01T09:51:58;24.30;99.90
5174;DHT22;2606;50.934;6.934;2022-08-01T09:54:32;24.30;99.90
5174;DHT22;2606;50.934;6.934;2022-08-01T09:57:13;24.50;99.90
5174;DHT22;2606;50.934;6.934;2022-08-01T09:59:40;24.70;99.90
5174;DHT22;2606;50.934;6.934;2022-08-01T10:02:09;24.90;99.60
5174;DHT22;2606;50.934;6.934;2022-08-01T10:04:36;25.00;99.50
5174;DHT22;2606;50.934;6.934;2022-08-01T10:07:07;25.10;99.40
5174;DHT22;2606;50.934;6.934;2022-08-01T10:09:35;25.10;98.90
5174;DHT22;2606;50.934;6.934;2022-08-01T10:12:03;25.20;98.60
5174;DHT22;2606;50.934;6.934;2022-08-01T10:14:29;25.30;98.80
5174;DHT22;2606;50.934;6.934;2022-08-01T10:16:57;25.50;98.30
5174;DHT22;2606;50.934;6.934;2022-08-01T10:19:25;25.60;98.00
5174;DHT22;2606;50.934;6.934;2022-08-01T10:21:52;25.80;98.30
5174;DHT22;2606;50.934;6.934;2022-08-01T10:24:20;26.10;97.10
5174;DHT22;2606;50.934;6.934;2022-08-01T10:26:48;26.30;97.20
5174;DHT22;2606;50.934;6.934;2022-08-01T10:29:18;26.40;97.00
5174;DHT22;2606;50.934;6.934;2022-08-01T10:31:46;26.30;96.80
5174;DHT22;2606;50.934;6.934;2022-08-01T10:34:13;26.20;96.30
5174;DHT22;2606;50.934;6.934;2022-08-01T10:36:42;26.20;96.50
5174;DHT22;2606;50.934;6.934;2022-08-01T10:39:10;26.20;96.30
5174;DHT22;2606;50.934;6.934;2022-08-01T10:41:36;26.10;96.50
5174;DHT22;2606;50.934;6.934;2022-08-01T10:44:03;26.10;96.80
5174;DHT22;2606;50.934;6.934;2022-08-01T10:46:30;26.20;96.60
5174;DHT22;2606;50.934;6.934;2022-08-01T10:49:06;26.20;96.20
5174;DHT22;2606;50.934;6.934;2022-08-01T10:51:36;26.10;96.40
5174;DHT22;2606;50.934;6.934;2022-08-01T10:54:06;26.10;96.40
5174;DHT22;2606;50.934;6.934;2022-08-01T10:56:48;26.00;96.30
5174;DHT22;2606;50.934;6.934;2022-08-01T10:59:23;26.00;97.00
5174;DHT22;2606;50.934;6.934;2022-08-01T11:02:26;26.40;95.90
5174;DHT22;2606;50.934;6.934;2022-08-01T11:04:57;26.50;95.40
5174;DHT22;2606;50.934;6.934;2022-08-01T11:07:42;26.80;95.30
5174;DHT22;2606;50.934;6.934;2022-08-01T11:10:19;27.20;94.50
5174;DHT22;2606;50.934;6.934;2022-08-01T11:12:47;27.40;93.70
5174;DHT22;2606;50.934;6.934;2022-08-01T11:17:44;28.20;92.40
5174;DHT22;2606;50.934;6.934;2022-08-01T11:20:20;28.40;91.60
5174;DHT22;2606;50.934;6.934;2022-08-01T11:25:25;28.60;91.00
5174;DHT22;2606;50.934;6.934;2022-08-01T11:30:54;28.50;90.70
5174;DHT22;2606;50.934;6.934;2022-08-01T11:38:36;28.20;90.80
5174;DHT22;2606;50.934;6.934;2022-08-01T11:44:00;28.80;89.60
5174;DHT22;2606;50.934;6.934;2022-08-01T11:46:52;29.00;89.20
5174;DHT22;2606;50.934;6.934;2022-08-01T11:52:08;28.50;88.00
5174;DHT22;2606;50.934;6.934;2022-08-01T11:54:39;28.20;87.40
5174;DHT22;2606;50.934;6.934;2022-08-01T11:57:18;28.10;87.60
5174;DHT22;2606;50.934;6.934;2022-08-01T11:59:49;28.20;87.60
5174;DHT22;2606;50.934;6.934;2022-08-01T12:02:20;28.40;87.60
5174;DHT22;2606;50.934;6.934;2022-08-01T12:05:09;28.80;84.80
5174;DHT22;2606;50.934;6.934;2022-08-01T12:07:37;29.20;81.50
5174;DHT22;2606;50.934;6.934;2022-08-01T12:10:12;29.50;81.00
5174;DHT22;2606;50.934;6.934;2022-08-01T12:12:49;29.60;79.00
5174;DHT22;2606;50.934;6.934;2022-08-01T12:15:15;29.40;78.20
5174;DHT22;2606;50.934;6.934;2022-08-01T12:17:43;29.30;78.40
5174;DHT22;2606;50.934;6.934;2022-08-01T12:20:14;29.20;79.00
5174;DHT22;2606;50.934;6.934;2022-08-01T12:22:40;29.00;80.40
5174;DHT22;2606;50.934;6.934;2022-08-01T12:27:33;28.90;81.80
5174;DHT22;2606;50.934;6.934;2022-08-01T12:29:59;28.80;82.40
5174;DHT22;2606;50.934;6.934;2022-08-01T12:32:33;28.60;82.70
5174;DHT22;2606;50.934;6.934;2022-08-01T12:35:05;28.50;83.20
5174;DHT22;2606;50.934;6.934;2022-08-01T12:37:38;28.40;83.00
5174;DHT22;2606;50.934;6.934;2022-08-01T12:40:16;28.50;82.70
5174;DHT22;2606;50.934;6.934;2022-08-01T12:42:43;28.40;82.00
5174;DHT22;2606;50.934;6.934;2022-08-01T12:45:12;28.30;81.60
5174;DHT22;2606;50.934;6.934;2022-08-01T12:47:39;28.30;81.10
5174;DHT22;2606;50.934;6.934;2022-08-01T12:50:17;28.40;79.90
5174;DHT22;2606;50.934;6.934;2022-08-01T12:52:43;28.40;77.10
5174;DHT22;2606;50.934;6.934;2022-08-01T12:57:44;28.50;77.80
5174;DHT22;2606;50.934;6.934;2022-08-01T13:02:45;29.00;76.80
5174;DHT22;2606;50.934;6.934;2022-08-01T13:05:12;29.30;76.20
5174;DHT22;2606;50.934;6.934;2022-08-01T13:07:39;29.50;75.70
5174;DHT22;2606;50.934;6.934;2022-08-01T13:10:06;29.70;75.40
5174;DHT22;2606;50.934;6.934;2022-08-01T13:12:32;29.90;75.20
5174;DHT22;2606;50.934;6.934;2022-08-01T13:14:58;29.80;74.50
5174;DHT22;2606;50.934;6.934;2022-08-01T13:17:33;29.60;74.90
5174;DHT22;2606;50.934;6.934;2022-08-01T13:20:04;29.40;75.40
5174;DHT22;2606;50.934;6.934;2022-08-01T13:22:37;29.30;76.00
5174;DHT22;2606;50.934;6.934;2022-08-01T13:25:13;29.20;75.70
5174;DHT22;2606;50.934;6.934;2022-08-01T13:27:39;29.10;75.80
5174;DHT22;2606;50.934;6.934;2022-08-01T13:30:18;29.00;76.30
5174;DHT22;2606;50.934;6.934;2022-08-01T13:32:56;29.00;76.30
5174;DHT22;2606;50.934;6.934;2022-08-01T13:35:22;28.90;75.10
5174;DHT22;2606;50.934;6.934;2022-08-01T13:37:50;28.80;74.30
5174;DHT22;2606;50.934;6.934;2022-08-01T13:40:24;28.80;74.50
5174;DHT22;2606;50.934;6.934;2022-08-01T13:42:51;28.80;73.90
5174;DHT22;2606;50.934;6.934;2022-08-01T13:45:16;28.70;73.40
5174;DHT22;2606;50.934;6.934;2022-08-01T13:47:43;28.50;72.70
5174;DHT22;2606;50.934;6.934;2022-08-01T13:50:09;28.40;73.60
5174;DHT22;2606;50.934;6.934;2022-08-01T13:52:35;28.30;73.40
5174;DHT22;2606;50.934;6.934;2022-08-01T13:55:01;28.10;73.10
5174;DHT22;2606;50.934;6.934;2022-08-01T13:57:27;27.90;73.50
5174;DHT22;2606;50.934;6.934;2022-08-01T13:59:53;27.70;73.60
5174;DHT22;2606;50.934;6.934;2022-08-01T14:02:19;27.70;73.80
5174;DHT22;2606;50.934;6.934;2022-08-01T14:04:45;27.60;74.00
5174;DHT22;2606;50.934;6.934;2022-08-01T14:07:11;27.60;73.50
5174;DHT22;2606;50.934;6.934;2022-08-01T14:09:37;27.60;73.60
5174;DHT22;2606;50.934;6.934;2022-08-01T14:12:03;27.50;73.30
5174;DHT22;2606;50.934;6.934;2022-08-01T14:14:29;27.50;73.20
5174;DHT22;2606;50.934;6.934;2022-08-01T14:16:55;27.50;73.00
5174;DHT22;2606;50.934;6.934;2022-08-01T14:19:21;27.50;72.80
5174;DHT22;2606;50.934;6.934;2022-08-01T14:21:46;27.60;72.20
5174;DHT22;2606;50.934;6.934;2022-08-01T14:24:12;27.60;73.20
5174;DHT22;2606;50.934;6.934;2022-08-01T14:26:37;27.80;73.20
5174;DHT22;2606;50.934;6.934;2022-08-01T14:29:03;27.90;72.30
5174;DHT22;2606;50.934;6.934;2022-08-01T14:31:29;28.00;72.00
5174;DHT22;2606;50.934;6.934;2022-08-01T14:33:55;28.10;71.40
5174;DHT22;2606;50.934;6.934;2022-08-01T14:36:20;28.20;69.90
5174;DHT22;2606;50.934;6.934;2022-08-01T14:38:46;28.20;69.80
5174;DHT22;2606;50.934;6.934;2022-08-01T14:41:13;28.20;69.70
5174;DHT22;2606;50.934;6.934;2022-08-01T14:43:38;28.30;69.50
5174;DHT22;2606;50.934;6.934;2022-08-01T14:46:04;28.30;69.40
5174;DHT22;2606;50.934;6.934;2022-08-01T14:48:30;28.30;69.90
5174;DHT22;2606;50.934;6.934;2022-08-01T14:50:56;28.30;69.60
5174;DHT22;2606;50.934;6.934;2022-08-01T14:53:21;28.40;69.20
5174;DHT22;2606;50.934;6.934;2022-08-01T14:55:47;28.50;68.80
5174;DHT22;2606;50.934;6.934;2022-08-01T14:58:13;28.50;68.90
5174;DHT22;2606;50.934;6.934;2022-08-01T15:00:38;28.50;69.60
5174;DHT22;2606;50.934;6.934;2022-08-01T15:03:04;28.50;69.20
5174;DHT22;2606;50.934;6.934;2022-08-01T15:05:29;28.50;69.00
5174;DHT22;2606;50.934;6.934;2022-08-01T15:07:56;28.50;69.70
5174;DHT22;2606;50.934;6.934;2022-08-01T15:10:22;28.60;69.60
5174;DHT22;2606;50.934;6.934;2022-08-01T15:12:48;28.70;70.30
5174;DHT22;2606;50.934;6.934;2022-08-01T15:15:14;28.70;70.10
5174;DHT22;2606;50.934;6.934;2022-08-01T15:17:39;28.80;70.30
5174;DHT22;2606;50.934;6.934;2022-08-01T15:20:06;28.90;69.90
5174;DHT22;2606;50.934;6.934;2022-08-01T15:22:33;29.00;69.20
5174;DHT22;2606;50.934;6.934;2022-08-01T15:25:00;29.10;68.80
5174;DHT22;2606;50.934;6.934;2022-08-01T15:27:27;29.10;68.60
5174;DHT22;2606;50.934;6.934;2022-08-01T15:29:53;28.90;68.40
5174;DHT22;2606;50.934;6.934;2022-08-01T15:32:19;28.80;70.40
5174;DHT22;2606;50.934;6.934;2022-08-01T15:34:45;28.70;70.90
5174;DHT22;2606;50.934;6.934;2022-08-01T15:37:11;28.70;70.10
5174;DHT22;2606;50.934;6.934;2022-08-01T15:39:37;28.70;69.20
5174;DHT22;2606;50.934;6.934;2022-08-01T15:42:14;28.60;70.00
5174;DHT22;2606;50.934;6.934;2022-08-01T15:44:40;28.60;70.40
5174;DHT22;2606;50.934;6.934;2022-08-01T15:47:07;28.50;70.70
5174;DHT22;2606;50.934;6.934;2022-08-01T15:49:33;28.50;71.30
5174;DHT22;2606;50.934;6.934;2022-08-01T15:52:02;28.50;71.00
5174;DHT22;2606;50.934;6.934;2022-08-01T15:54:27;28.50;71.00
5174;DHT22;2606;50.934;6.934;2022-08-01T15:56:53;28.40;71.90
5174;DHT22;2606;50.934;6.934;2022-08-01T15:59:19;28.40;73.40
5174;DHT22;2606;50.934;6.934;2022-08-01T16:01:44;28.40;74.00
5174;DHT22;2606;50.934;6.934;2022-08-01T16:04:10;28.30;74.30
5174;DHT22;2606;50.934;6.934;2022-08-01T16:06:36;28.20;74.70
5174;DHT22;2606;50.934;6.934;2022-08-01T16:09:03;28.20;74.90
5174;DHT22;2606;50.934;6.934;2022-08-01T16:11:29;28.10;74.70
5174;DHT22;2606;50.934;6.934;2022-08-01T16:13:56;28.10;75.30
5174;DHT22;2606;50.934;6.934;2022-08-01T16:16:22;28.10;75.30
5174;DHT22;2606;50.934;6.934;2022-08-01T16:18:47;28.10;76.30
5174;DHT22;2606;50.934;6.934;2022-08-01T16:21:13;28.50;75.60
5174;DHT22;2606;50.934;6.934;2022-08-01T16:23:39;28.90;75.00
5174;DHT22;2606;50.934;6.934;2022-08-01T16:26:06;29.40;74.00
5174;DHT22;2606;50.934;6.934;2022-08-01T16:28:31;29.80;72.90
5174;DHT22;2606;50.934;6.934;2022-08-01T16:30:57;30.00;72.50
5174;DHT22;2606;50.934;6.934;2022-08-01T16:33:23;30.20;72.30
5174;DHT22;2606;50.934;6.934;2022-08-01T16:35:49;30.50;71.10
5174;DHT22;2606;50.934;6.934;2022-08-01T16:38:14;30.60;70.30
5174;DHT22;2606;50.934;6.934;2022-08-01T16:40:42;30.50;70.00
5174;DHT22;2606;50.934;6.934;2022-08-01T16:43:08;30.30;68.60
5174;DHT22;2606;50.934;6.934;2022-08-01T16:45:34;30.00;69.00
5174;DHT22;2606;50.934;6.934;2022-08-01T16:48:00;29.70;69.00